Flight Track Log - Related Links

Times and Time Zones

All times are in EDT time to prevent confusion due to time zone crossing. See the JIA2394 flight status page for this flight to view local times or setup timezone preferences in your user account.

Time Position Orientation Groundspeed Altitude Reporting Facility
EDT Latitude Longitude Course Direction KTS MPH feet Rate Location/Type
Sun 09:32:05 AM 33.5683 -86.7464 55° Northeast 158 182 1,200  Level Atlanta Center
Sun 09:33:10 AM 33.5986 -86.6950 55° Northeast 199 229 2,800 1,935 Climbing Atlanta Center
Sun 09:34:00 AM 33.7319 -86.4636 54° Northeast  Level FlightAware Approximate
Sun 09:34:09 AM 33.6375 -86.6336 53° Northeast 241 277 5,200  Level Atlanta Center
Sun 09:35:00 AM 33.7911 -86.3649 54° Northeast  Level FlightAware Approximate
Sun 09:35:09 AM 33.6831 -86.5578 54° Northeast 258 297 7,300  Level Atlanta Center
Sun 09:36:00 AM 33.8539 -86.2693 51° Northeast  Level FlightAware Approximate
Sun 09:36:09 AM 33.7367 -86.4769 51° Northeast 285 328 10,100  Level Atlanta Center
Sun 09:37:00 AM 33.9156 -86.1728 55° Northeast  Level FlightAware Approximate
Sun 09:37:09 AM 33.7864 -86.3958 54° Northeast 296 341 12,800  Level Atlanta Center
Sun 09:38:09 AM 33.8422 -86.3072 53° Northeast 313 360 14,800 1,950 Climbing Atlanta Center
Sun 09:39:09 AM 33.8961 -86.2136 55° Northeast 324 373 16,700 1,700 Climbing Atlanta Center
Sun 09:40:09 AM 33.9564 -86.1150 54° Northeast 343 395 18,200 1,450 Climbing Atlanta Center
Sun 09:41:09 AM 33.9728 -85.9975 80° East 348 400 19,600 1,500 Climbing Atlanta Center
Sun 09:42:09 AM 33.9706 -85.8747 91° East 353 406 21,200 1,550 Climbing Atlanta Center
Sun 09:43:09 AM 33.9747 -85.7347 88° East 363 418 22,700 1,250 Climbing Atlanta Center
Sun 09:44:09 AM 33.9700 -85.6219 93° East 373 429 23,700 650 Climbing Atlanta Center
Sun 09:45:09 AM 33.9694 -85.4892 90° East 392 451 24,000 600 Climbing Atlanta Center
Sun 09:46:09 AM 33.9647 -85.3486 92° East 404 465 24,900 500 Climbing Atlanta Center
Sun 09:47:09 AM 33.9639 -85.2136 90° East 404 465 25,000 50 Climbing Atlanta Center
Sun 09:48:09 AM 33.9611 -85.0783 91° East 399 459 25,000  Level Atlanta Center
Sun 09:49:09 AM 33.9581 -84.9403 91° East 404 465 25,000  Level Atlanta Center
Sun 09:50:09 AM 33.9528 -84.7900 92° East 404 465 25,000  Level Atlanta Center
Sun 09:51:09 AM 33.9492 -84.6547 92° East 404 465 25,000  Level Atlanta Center
Sun 09:52:09 AM 33.9478 -84.5247 91° East 404 465 25,000  Level Atlanta Center
Sun 09:53:09 AM 33.9481 -84.4069 90° East 399 459 25,000  Level Atlanta Center
Sun 09:54:09 AM 33.9381 -84.2817 95° East 387 445 25,000  Level Atlanta Center
Sun 09:55:09 AM 33.9383 -84.1489 90° East 393 452 25,000  Level Atlanta Center
Sun 09:56:09 AM 33.9342 -84.0239 92° East 383 441 25,000  Level Atlanta Center
Sun 09:57:09 AM 33.9297 -83.9011 92° East 377 434 25,000  Level Atlanta Center
Sun 09:58:09 AM 33.9275 -83.7633 91° East 377 434 25,000  Level Atlanta Center
Sun 09:59:09 AM 33.9417 -83.6381 82° East 372 428 25,000  Level Atlanta Center
Sun 10:00:09 AM 33.9683 -83.5153 75° East 372 428 25,000  Level Atlanta Center
Sun 10:01:09 AM 33.9950 -83.3897 76° East 372 428 25,000  Level Atlanta Center
Sun 10:02:09 AM 34.0214 -83.2619 76° East 377 434 25,000  Level Atlanta Center
Sun 10:03:09 AM 34.0517 -83.1311 74° East 388 447 25,000 -200 Level Atlanta Center
Sun 10:04:09 AM 34.0778 -83.0056 76° East 393 452 24,600 -450 Descending Atlanta Center
Sun 10:05:09 AM 34.1081 -82.8797 74° East 388 447 24,100 -300 Descending Atlanta Center
Sun 10:06:09 AM 34.1050 -82.7669 92° East 361 415 24,000 -50 Descending Atlanta Center
Sun 10:07:09 AM 34.0850 -82.6542 102° East 338 389 24,000  Level Atlanta Center
Sun 10:08:09 AM 34.0608 -82.5569 107° East 343 395 24,000  Level Atlanta Center
Sun 10:09:09 AM 34.0344 -82.4419 105° East 343 395 24,000  Level Atlanta Center
Sun 10:10:09 AM 34.0161 -82.3269 101° East 343 395 24,000  Level Atlanta Center
Sun 10:11:09 AM 34.0856 -82.2328 48° Northeast 304 350 24,000 -250 Level Atlanta Center
Sun 10:12:09 AM 34.1658 -82.1483 41° Northeast 333 383 23,500 -500 Descending Atlanta Center
Sun 10:13:09 AM 34.2500 -82.0611 41° Northeast 361 415 23,000 -650 Descending Atlanta Center
Sun 10:14:09 AM 34.3300 -81.9736 42° Northeast 379 436 22,200 -1,550 Descending Atlanta Center
Sun 10:15:09 AM 34.4058 -81.8911 42° Northeast 379 436 19,900 -2,200 Descending Atlanta Center
Sun 10:16:09 AM 34.4836 -81.8111 40° Northeast 374 430 17,800 -2,100 Descending Atlanta Center
Sun 10:17:09 AM 34.5614 -81.7283 41° Northeast 369 425 15,700 -2,050 Descending Atlanta Center
Sun 10:18:09 AM 34.6308 -81.6506 43° Northeast 358 412 13,700 -2,138 Descending Atlanta Center
Sun 10:18:36 AM 34.6658 -81.6169 38° Northeast 325 374 12,600 -2,200 Descending Atlanta Center
Sun 10:19:09 AM 34.7044 -81.5753 42° Northeast 323 372 11,500 -1,574 Descending Atlanta Center
Sun 10:19:37 AM 34.7372 -81.5439 38° Northeast 305 351 11,000 -500 Descending Atlanta Center
Sun 10:20:09 AM 34.7533 -81.5081 61° Northeast 299 344 11,000  Level Atlanta Center
Sun 10:20:38 AM 34.7478 -81.4528 97° East 270 311 11,000 -700 Level Atlanta Center
Sun 10:21:09 AM 34.7472 -81.4172 91° East 257 296 10,300 -1,869 Descending Atlanta Center
Sun 10:21:39 AM 34.7481 -81.3617 89° East 271 312 9,100 -1,279 Descending Atlanta Center
Sun 10:22:10 AM 34.7514 -81.3211 84° East 264 304 9,000 -98 Descending Atlanta Center
Sun 10:22:40 AM 34.7586 -81.2678 81° East 277 319 9,000  Level Atlanta Center
Sun 10:23:09 AM 34.7617 -81.2272 85° East 277 319 9,000  Level Atlanta Center
Sun 10:23:36 AM 34.7669 -81.1817 82° East 282 325 9,000 -200 Level Atlanta Center
Sun 10:24:09 AM 34.7639 -81.1361 95° East 277 319 8,800 -537 Descending Atlanta Center
Sun 10:24:43 AM 34.7603 -81.0756 94° East 266 306 8,400 -600 Descending Atlanta Center
Sun 10:25:09 AM 34.7597 -81.0503 92° East 263 303 8,200 -393 Descending Atlanta Center
Sun 10:25:44 AM 34.7583 -80.9997 92° East 219 252 8,000 -200 Descending Atlanta Center
Sun 10:26:09 AM 34.7578 -80.9772 92° East 227 261 8,000  Level Atlanta Center
Sun 10:26:45 AM 34.7753 -80.9283 66° East 231 266 8,000 -100 Level Atlanta Center
Sun 10:27:09 AM 34.8022 -80.9197 15° North 188 216 7,900 -197 Descending Atlanta Center
Sun 10:27:46 AM 34.8442 -80.9233 356° North 239 275 7,800 -848 Descending Atlanta Center
Sun 10:28:48 AM 34.9111 -80.9283 356° North 217 250 6,500 -1,230 Descending Atlanta Center
Sun 10:29:48 AM 34.9697 -80.9339 356° North 217 250 5,300 -1,134 Descending Atlanta Center
Sun 10:30:55 AM 35.0303 -80.9392 356° North 207 238 4,100 -1,122 Descending Atlanta Center
Sun 10:31:51 AM 35.0847 -80.9447 355° North 205 236 3,000 -1,077 Descending Atlanta Center
Sun 10:32:52 AM 35.1369 -80.9478 357° North 172 198 2,000 -836 Descending Atlanta Center
Sun 10:33:53 AM 35.1725 -80.9517 355° North 126 145 1,300 -689 Descending Atlanta Center

Login

Don't have an account? Register now (free) for customized features, flight alerts, and more!